Nearby METAR Reports

This page may be slow to load as it queries the National Weather Service for data.

KBIS - Bismarck, North Dakota, USA
Distance from station: S 10mi, 15km
Updated: Sun, 19-Jan-2020 5:39am CST
unable to load KBIS data RC=
unable to load KBIS data RC=
 
KDIK - Dickinson, North Dakota, USA
Distance from station: W 95mi, 154km
Updated: Sun, 19-Jan-2020 5:39am CST
unable to load KDIK data RC=
unable to load KDIK data RC=
 
 
KISN - Williston, North Dakota, USA
Distance from station: NNW 2mi, 2km
Updated: Fri, 18-Oct-2019 8:53am CDT
NOT Current

 
2019/10/18 13:53 KISN 181353Z AUTO RMK AO2 SLPNO PWINO FZRANO TSNO PNO $
KFAR - Fargo, North Dakota, USA
Distance from station: NNW 4mi, 7km
Updated: Sun, 19-Jan-2020 4:53am CST
Clear
Clear
 Wind from WNW
Wind: WNW 13 mph , 20 km/h
Temperature: -6°F , -21°C
Wind Chill: -26°F , -32°C
Dew Point: -11°F , -24°C
Humidity: 77%
Barometer: 30.46 inHg , 1031.5 hPa
Clouds: Clear
Visibility: 10 miles , 16 km
2020/01/19 10:53 KFAR 191053Z AUTO 30011KT 10SM CLR M21/M24 A3046 RMK AO2 SLP345 T12061239 $
 
KGFK - Grand Forks, North Dakota, USA
Distance from station: NNW 76mi, 123km
Updated: Sun, 19-Jan-2020 4:53am CST
Clear
Clear
 Wind from NW
Wind: NW 9 mph , 15 km/h
Temperature: -2°F , -19°C
Wind Chill: -18°F , -28°C
Dew Point: -8°F , -22°C
Humidity: 77%
Barometer: 30.46 inHg , 1031.5 hPa
Clouds: Clear
Visibility: 10 miles , 16 km
2020/01/19 10:53 KGFK 191053Z AUTO 32008KT 10SM CLR M19/M22 A3046 RMK AO2 SLP342 T11891222 $
KMOT - Minot, North Dakota, USA
Distance from station: E 109mi, 175km
Updated: Sun, 19-Jan-2020 4:54am CST
Clear
Clear
 Wind from W
Wind: W 17 mph , 28 km/h
Temperature: -9°F , -23°C
Wind Chill: -32°F , -36°C
Dew Point: -17°F , -27°C
Humidity: 70%
Barometer: 30.48 inHg , 1032.2 hPa
Clouds: Clear
Visibility: 10 miles , 16 km
2020/01/19 10:54 KMOT 191054Z AUTO 27015KT 10SM CLR M23/M27 A3048 RMK AO2 SLP381 T12331272 $